sensor_id;sensor_type;location;lat;lon;timestamp;temperature;humidity
25250;DHT22;13201;51.148;13.738;2022-07-15T00:00:13;16.80;99.90
25250;DHT22;13201;51.148;13.738;2022-07-15T00:02:40;16.80;99.90
25250;DHT22;13201;51.148;13.738;2022-07-15T00:05:07;16.80;99.90
25250;DHT22;13201;51.148;13.738;2022-07-15T00:07:33;16.60;99.90
25250;DHT22;13201;51.148;13.738;2022-07-15T00:09:59;16.50;99.90
25250;DHT22;13201;51.148;13.738;2022-07-15T00:12:44;16.50;99.90
25250;DHT22;13201;51.148;13.738;2022-07-15T00:15:10;16.30;99.90
25250;DHT22;13201;51.148;13.738;2022-07-15T00:17:36;16.40;99.90
25250;DHT22;13201;51.148;13.738;2022-07-15T00:20:02;16.50;99.90
25250;DHT22;13201;51.148;13.738;2022-07-15T00:22:28;16.40;99.90
25250;DHT22;13201;51.148;13.738;2022-07-15T00:24:53;16.50;99.90
25250;DHT22;13201;51.148;13.738;2022-07-15T00:27:19;16.60;99.90
25250;DHT22;13201;51.148;13.738;2022-07-15T00:29:45;16.60;99.90
25250;DHT22;13201;51.148;13.738;2022-07-15T00:32:10;16.60;99.90
25250;DHT22;13201;51.148;13.738;2022-07-15T00:34:36;16.50;99.90
25250;DHT22;13201;51.148;13.738;2022-07-15T00:37:02;16.40;99.90
25250;DHT22;13201;51.148;13.738;2022-07-15T00:39:28;16.30;99.90
25250;DHT22;13201;51.148;13.738;2022-07-15T00:41:54;16.40;99.90
25250;DHT22;13201;51.148;13.738;2022-07-15T00:44:20;16.50;99.90
25250;DHT22;13201;51.148;13.738;2022-07-15T00:46:45;16.50;99.90
25250;DHT22;13201;51.148;13.738;2022-07-15T00:49:11;16.50;99.90
25250;DHT22;13201;51.148;13.738;2022-07-15T00:51:40;16.40;99.90
25250;DHT22;13201;51.148;13.738;2022-07-15T00:54:09;16.50;99.90
25250;DHT22;13201;51.148;13.738;2022-07-15T00:56:40;16.50;99.90
25250;DHT22;13201;51.148;13.738;2022-07-15T00:59:06;16.30;99.90
25250;DHT22;13201;51.148;13.738;2022-07-15T01:01:35;16.00;99.90
25250;DHT22;13201;51.148;13.738;2022-07-15T01:04:05;16.00;99.90
25250;DHT22;13201;51.148;13.738;2022-07-15T01:06:31;16.00;99.90
25250;DHT22;13201;51.148;13.738;2022-07-15T01:32:37;14.60;99.90
25250;DHT22;13201;51.148;13.738;2022-07-15T01:35:03;14.50;99.90
25250;DHT22;13201;51.148;13.738;2022-07-15T01:37:29;14.40;99.90
25250;DHT22;13201;51.148;13.738;2022-07-15T01:39:55;14.60;99.90
25250;DHT22;13201;51.148;13.738;2022-07-15T01:42:21;14.80;99.90
25250;DHT22;13201;51.148;13.738;2022-07-15T01:44:46;15.00;99.90
25250;DHT22;13201;51.148;13.738;2022-07-15T01:47:12;15.00;99.90
25250;DHT22;13201;51.148;13.738;2022-07-15T01:49:38;15.00;99.90
25250;DHT22;13201;51.148;13.738;2022-07-15T01:52:04;15.20;99.90
25250;DHT22;13201;51.148;13.738;2022-07-15T01:54:31;15.30;99.90
25250;DHT22;13201;51.148;13.738;2022-07-15T01:56:58;15.20;99.90
25250;DHT22;13201;51.148;13.738;2022-07-15T01:59:24;15.30;99.90
25250;DHT22;13201;51.148;13.738;2022-07-15T02:01:54;15.10;99.90
25250;DHT22;13201;51.148;13.738;2022-07-15T02:04:21;15.10;99.90
25250;DHT22;13201;51.148;13.738;2022-07-15T02:06:46;15.00;99.90
25250;DHT22;13201;51.148;13.738;2022-07-15T02:09:12;15.00;99.90
25250;DHT22;13201;51.148;13.738;2022-07-15T02:11:38;14.60;99.90
25250;DHT22;13201;51.148;13.738;2022-07-15T02:14:04;14.80;99.90
25250;DHT22;13201;51.148;13.738;2022-07-15T02:16:30;14.70;99.90
25250;DHT22;13201;51.148;13.738;2022-07-15T02:18:56;14.70;99.90
25250;DHT22;13201;51.148;13.738;2022-07-15T02:21:23;14.80;99.90
25250;DHT22;13201;51.148;13.738;2022-07-15T02:23:49;14.80;99.90
25250;DHT22;13201;51.148;13.738;2022-07-15T02:26:15;14.60;99.90
25250;DHT22;13201;51.148;13.738;2022-07-15T02:28:40;14.60;99.90
25250;DHT22;13201;51.148;13.738;2022-07-15T02:31:06;14.60;99.90
25250;DHT22;13201;51.148;13.738;2022-07-15T02:33:32;14.60;99.90
25250;DHT22;13201;51.148;13.738;2022-07-15T02:35:58;14.70;99.90
25250;DHT22;13201;51.148;13.738;2022-07-15T02:38:23;14.60;99.90
25250;DHT22;13201;51.148;13.738;2022-07-15T02:40:49;14.40;99.90
25250;DHT22;13201;51.148;13.738;2022-07-15T02:43:15;14.40;99.90
25250;DHT22;13201;51.148;13.738;2022-07-15T02:45:41;14.30;99.90
25250;DHT22;13201;51.148;13.738;2022-07-15T02:48:07;14.20;99.90
25250;DHT22;13201;51.148;13.738;2022-07-15T02:50:33;13.90;99.90
25250;DHT22;13201;51.148;13.738;2022-07-15T02:53:01;14.00;99.90
25250;DHT22;13201;51.148;13.738;2022-07-15T02:55:27;14.00;99.90
25250;DHT22;13201;51.148;13.738;2022-07-15T02:57:52;14.00;99.90
25250;DHT22;13201;51.148;13.738;2022-07-15T03:00:18;14.00;99.90
25250;DHT22;13201;51.148;13.738;2022-07-15T03:02:46;14.20;99.90
25250;DHT22;13201;51.148;13.738;2022-07-15T03:05:12;14.10;99.90
25250;DHT22;13201;51.148;13.738;2022-07-15T03:07:39;14.00;99.90
25250;DHT22;13201;51.148;13.738;2022-07-15T03:10:06;14.10;99.90
25250;DHT22;13201;51.148;13.738;2022-07-15T03:12:32;14.00;99.90
25250;DHT22;13201;51.148;13.738;2022-07-15T03:14:59;14.20;99.90
25250;DHT22;13201;51.148;13.738;2022-07-15T03:17:24;14.10;99.90
25250;DHT22;13201;51.148;13.738;2022-07-15T03:19:50;14.10;99.90
25250;DHT22;13201;51.148;13.738;2022-07-15T03:22:16;14.00;99.90
25250;DHT22;13201;51.148;13.738;2022-07-15T03:24:41;13.90;99.90
25250;DHT22;13201;51.148;13.738;2022-07-15T03:27:07;14.00;99.90
25250;DHT22;13201;51.148;13.738;2022-07-15T03:29:35;14.00;99.90
25250;DHT22;13201;51.148;13.738;2022-07-15T03:32:00;13.90;99.90
25250;DHT22;13201;51.148;13.738;2022-07-15T03:34:27;13.80;99.90
25250;DHT22;13201;51.148;13.738;2022-07-15T03:36:53;13.80;99.90
25250;DHT22;13201;51.148;13.738;2022-07-15T03:39:19;13.60;99.90
25250;DHT22;13201;51.148;13.738;2022-07-15T03:41:45;13.60;99.90
25250;DHT22;13201;51.148;13.738;2022-07-15T03:44:12;13.60;99.90
25250;DHT22;13201;51.148;13.738;2022-07-15T03:46:39;13.70;99.90
25250;DHT22;13201;51.148;13.738;2022-07-15T03:49:05;13.80;99.90
25250;DHT22;13201;51.148;13.738;2022-07-15T03:51:31;13.70;99.90
25250;DHT22;13201;51.148;13.738;2022-07-15T03:54:02;13.80;99.90
25250;DHT22;13201;51.148;13.738;2022-07-15T03:56:29;13.80;99.90
25250;DHT22;13201;51.148;13.738;2022-07-15T03:58:55;13.90;99.90
25250;DHT22;13201;51.148;13.738;2022-07-15T04:01:21;13.90;99.90
25250;DHT22;13201;51.148;13.738;2022-07-15T04:03:48;13.90;99.90
25250;DHT22;13201;51.148;13.738;2022-07-15T04:06:14;13.80;99.90
25250;DHT22;13201;51.148;13.738;2022-07-15T04:08:41;13.80;99.90
25250;DHT22;13201;51.148;13.738;2022-07-15T04:11:06;13.90;99.90
25250;DHT22;13201;51.148;13.738;2022-07-15T04:13:32;13.80;99.90
25250;DHT22;13201;51.148;13.738;2022-07-15T04:15:58;13.70;99.90
25250;DHT22;13201;51.148;13.738;2022-07-15T04:18:23;13.70;99.90
25250;DHT22;13201;51.148;13.738;2022-07-15T04:20:49;13.80;99.90
25250;DHT22;13201;51.148;13.738;2022-07-15T04:23:14;13.80;99.90
25250;DHT22;13201;51.148;13.738;2022-07-15T04:25:41;13.90;99.90
25250;DHT22;13201;51.148;13.738;2022-07-15T04:28:07;13.90;99.90
25250;DHT22;13201;51.148;13.738;2022-07-15T04:30:33;13.90;99.90
25250;DHT22;13201;51.148;13.738;2022-07-15T04:32:58;13.80;99.90
25250;DHT22;13201;51.148;13.738;2022-07-15T04:35:24;13.90;99.90
25250;DHT22;13201;51.148;13.738;2022-07-15T04:37:50;13.80;99.90
25250;DHT22;13201;51.148;13.738;2022-07-15T04:40:16;13.80;99.90
25250;DHT22;13201;51.148;13.738;2022-07-15T04:42:42;13.90;99.90
25250;DHT22;13201;51.148;13.738;2022-07-15T04:45:08;13.90;99.90
25250;DHT22;13201;51.148;13.738;2022-07-15T04:47:34;14.10;99.90
25250;DHT22;13201;51.148;13.738;2022-07-15T04:50:00;14.30;99.90
25250;DHT22;13201;51.148;13.738;2022-07-15T04:52:47;14.10;99.90
25250;DHT22;13201;51.148;13.738;2022-07-15T04:55:14;13.90;99.90
25250;DHT22;13201;51.148;13.738;2022-07-15T04:57:40;14.10;99.90
25250;DHT22;13201;51.148;13.738;2022-07-15T05:00:07;14.20;99.90
25250;DHT22;13201;51.148;13.738;2022-07-15T05:02:33;14.20;99.90
25250;DHT22;13201;51.148;13.738;2022-07-15T05:04:59;14.10;99.90
25250;DHT22;13201;51.148;13.738;2022-07-15T05:07:25;14.30;99.90
25250;DHT22;13201;51.148;13.738;2022-07-15T05:09:50;14.40;99.90
25250;DHT22;13201;51.148;13.738;2022-07-15T05:12:17;14.50;99.90
25250;DHT22;13201;51.148;13.738;2022-07-15T05:14:42;14.40;99.90
25250;DHT22;13201;51.148;13.738;2022-07-15T05:17:08;14.60;99.90
25250;DHT22;13201;51.148;13.738;2022-07-15T05:19:34;14.60;99.90
25250;DHT22;13201;51.148;13.738;2022-07-15T05:22:00;14.70;99.90
25250;DHT22;13201;51.148;13.738;2022-07-15T05:24:25;14.70;99.90
25250;DHT22;13201;51.148;13.738;2022-07-15T05:26:51;14.80;99.90
25250;DHT22;13201;51.148;13.738;2022-07-15T05:29:17;15.00;99.90
25250;DHT22;13201;51.148;13.738;2022-07-15T05:31:42;15.20;99.90
25250;DHT22;13201;51.148;13.738;2022-07-15T05:34:09;15.20;99.90
25250;DHT22;13201;51.148;13.738;2022-07-15T05:36:34;15.10;99.90
25250;DHT22;13201;51.148;13.738;2022-07-15T05:39:00;15.20;99.90
25250;DHT22;13201;51.148;13.738;2022-07-15T05:41:26;15.40;99.90
25250;DHT22;13201;51.148;13.738;2022-07-15T05:43:52;15.50;99.90
25250;DHT22;13201;51.148;13.738;2022-07-15T05:46:17;15.70;99.90
25250;DHT22;13201;51.148;13.738;2022-07-15T05:48:43;15.90;99.90
25250;DHT22;13201;51.148;13.738;2022-07-15T05:51:09;15.90;99.90
25250;DHT22;13201;51.148;13.738;2022-07-15T05:53:35;15.70;99.90
25250;DHT22;13201;51.148;13.738;2022-07-15T05:56:01;15.70;99.90
25250;DHT22;13201;51.148;13.738;2022-07-15T05:58:26;15.60;99.90
25250;DHT22;13201;51.148;13.738;2022-07-15T06:00:52;15.80;99.90
25250;DHT22;13201;51.148;13.738;2022-07-15T06:03:18;15.80;99.90
25250;DHT22;13201;51.148;13.738;2022-07-15T06:05:44;15.90;99.90
25250;DHT22;13201;51.148;13.738;2022-07-15T06:08:10;15.90;99.90
25250;DHT22;13201;51.148;13.738;2022-07-15T06:10:36;16.10;99.90
25250;DHT22;13201;51.148;13.738;2022-07-15T06:13:02;16.20;99.90
25250;DHT22;13201;51.148;13.738;2022-07-15T06:15:27;16.30;99.90
25250;DHT22;13201;51.148;13.738;2022-07-15T06:17:53;16.20;99.90
25250;DHT22;13201;51.148;13.738;2022-07-15T06:20:19;16.40;99.90
25250;DHT22;13201;51.148;13.738;2022-07-15T06:22:45;16.30;99.90
25250;DHT22;13201;51.148;13.738;2022-07-15T06:25:11;16.30;99.90
25250;DHT22;13201;51.148;13.738;2022-07-15T06:27:37;16.40;99.90
25250;DHT22;13201;51.148;13.738;2022-07-15T06:30:03;16.20;99.90
25250;DHT22;13201;51.148;13.738;2022-07-15T06:32:30;16.60;99.90
25250;DHT22;13201;51.148;13.738;2022-07-15T06:34:56;16.60;99.90
25250;DHT22;13201;51.148;13.738;2022-07-15T06:37:21;16.50;99.90
25250;DHT22;13201;51.148;13.738;2022-07-15T06:39:47;16.40;99.90
25250;DHT22;13201;51.148;13.738;2022-07-15T06:42:13;16.60;99.90
25250;DHT22;13201;51.148;13.738;2022-07-15T06:44:39;16.80;99.90
25250;DHT22;13201;51.148;13.738;2022-07-15T06:47:04;16.80;99.90
25250;DHT22;13201;51.148;13.738;2022-07-15T06:49:32;16.70;99.90
25250;DHT22;13201;51.148;13.738;2022-07-15T06:51:58;17.00;99.90
25250;DHT22;13201;51.148;13.738;2022-07-15T06:54:24;16.90;99.90
25250;DHT22;13201;51.148;13.738;2022-07-15T06:56:50;17.00;99.90
25250;DHT22;13201;51.148;13.738;2022-07-15T06:59:16;17.10;99.90
25250;DHT22;13201;51.148;13.738;2022-07-15T07:01:41;16.90;99.90
25250;DHT22;13201;51.148;13.738;2022-07-15T07:04:07;16.90;99.90
25250;DHT22;13201;51.148;13.738;2022-07-15T07:06:33;16.80;99.90
25250;DHT22;13201;51.148;13.738;2022-07-15T07:08:59;17.00;99.90
25250;DHT22;13201;51.148;13.738;2022-07-15T07:11:25;17.10;99.90
25250;DHT22;13201;51.148;13.738;2022-07-15T07:13:51;17.00;99.90
25250;DHT22;13201;51.148;13.738;2022-07-15T07:16:17;17.20;99.90
25250;DHT22;13201;51.148;13.738;2022-07-15T07:18:43;17.40;99.90
25250;DHT22;13201;51.148;13.738;2022-07-15T07:21:13;17.30;99.90
25250;DHT22;13201;51.148;13.738;2022-07-15T07:23:38;17.10;99.90
25250;DHT22;13201;51.148;13.738;2022-07-15T07:26:06;17.20;99.90
25250;DHT22;13201;51.148;13.738;2022-07-15T07:28:32;17.20;99.90
25250;DHT22;13201;51.148;13.738;2022-07-15T07:30:59;17.20;99.90
25250;DHT22;13201;51.148;13.738;2022-07-15T07:33:25;17.20;99.90
25250;DHT22;13201;51.148;13.738;2022-07-15T07:35:51;17.30;99.90
25250;DHT22;13201;51.148;13.738;2022-07-15T07:38:18;17.80;99.90
25250;DHT22;13201;51.148;13.738;2022-07-15T07:40:44;17.90;99.90
25250;DHT22;13201;51.148;13.738;2022-07-15T07:43:14;17.60;99.90
25250;DHT22;13201;51.148;13.738;2022-07-15T07:45:40;17.80;99.90
25250;DHT22;13201;51.148;13.738;2022-07-15T07:48:06;17.70;99.90
25250;DHT22;13201;51.148;13.738;2022-07-15T07:50:32;17.70;99.90
25250;DHT22;13201;51.148;13.738;2022-07-15T07:52:58;17.70;99.90
25250;DHT22;13201;51.148;13.738;2022-07-15T07:55:23;17.60;99.90
25250;DHT22;13201;51.148;13.738;2022-07-15T07:57:51;17.70;99.90
25250;DHT22;13201;51.148;13.738;2022-07-15T08:00:17;17.80;99.90
25250;DHT22;13201;51.148;13.738;2022-07-15T08:02:44;18.00;99.90
25250;DHT22;13201;51.148;13.738;2022-07-15T08:05:10;17.90;99.90
25250;DHT22;13201;51.148;13.738;2022-07-15T08:07:37;18.20;99.90
25250;DHT22;13201;51.148;13.738;2022-07-15T08:10:03;18.00;99.90
25250;DHT22;13201;51.148;13.738;2022-07-15T08:12:29;18.30;99.90
25250;DHT22;13201;51.148;13.738;2022-07-15T08:14:55;18.60;99.90
25250;DHT22;13201;51.148;13.738;2022-07-15T08:17:23;18.50;99.90
25250;DHT22;13201;51.148;13.738;2022-07-15T08:19:49;18.60;99.90
25250;DHT22;13201;51.148;13.738;2022-07-15T08:22:15;18.60;99.90
25250;DHT22;13201;51.148;13.738;2022-07-15T08:24:41;18.40;99.90
25250;DHT22;13201;51.148;13.738;2022-07-15T08:27:07;18.30;99.90
25250;DHT22;13201;51.148;13.738;2022-07-15T08:29:34;18.00;99.90
25250;DHT22;13201;51.148;13.738;2022-07-15T08:32:00;17.70;99.90
25250;DHT22;13201;51.148;13.738;2022-07-15T08:34:25;18.20;99.90
25250;DHT22;13201;51.148;13.738;2022-07-15T08:36:51;18.70;99.90
25250;DHT22;13201;51.148;13.738;2022-07-15T08:39:16;18.60;99.90
25250;DHT22;13201;51.148;13.738;2022-07-15T08:41:42;18.40;99.90
25250;DHT22;13201;51.148;13.738;2022-07-15T08:44:08;18.50;99.90
25250;DHT22;13201;51.148;13.738;2022-07-15T08:46:35;18.30;99.90
25250;DHT22;13201;51.148;13.738;2022-07-15T08:49:05;18.40;99.90
25250;DHT22;13201;51.148;13.738;2022-07-15T08:51:33;18.30;99.90
25250;DHT22;13201;51.148;13.738;2022-07-15T08:54:02;18.60;99.90
25250;DHT22;13201;51.148;13.738;2022-07-15T08:56:28;18.80;99.90
25250;DHT22;13201;51.148;13.738;2022-07-15T08:58:54;19.00;99.90
25250;DHT22;13201;51.148;13.738;2022-07-15T09:01:20;19.00;99.90
25250;DHT22;13201;51.148;13.738;2022-07-15T09:03:46;19.00;99.90
25250;DHT22;13201;51.148;13.738;2022-07-15T09:06:46;18.90;99.90
25250;DHT22;13201;51.148;13.738;2022-07-15T09:09:21;19.00;99.90
25250;DHT22;13201;51.148;13.738;2022-07-15T09:12:07;18.70;99.90
25250;DHT22;13201;51.148;13.738;2022-07-15T09:14:35;18.60;99.90
25250;DHT22;13201;51.148;13.738;2022-07-15T09:17:21;18.70;99.90
25250;DHT22;13201;51.148;13.738;2022-07-15T09:20:07;19.00;99.90
25250;DHT22;13201;51.148;13.738;2022-07-15T09:22:54;19.60;99.90
25250;DHT22;13201;51.148;13.738;2022-07-15T09:25:23;19.50;99.90
25250;DHT22;13201;51.148;13.738;2022-07-15T09:27:50;18.90;99.90
25250;DHT22;13201;51.148;13.738;2022-07-15T09:30:22;18.80;99.90
25250;DHT22;13201;51.148;13.738;2022-07-15T09:33:12;18.70;99.90
25250;DHT22;13201;51.148;13.738;2022-07-15T09:36:16;18.80;99.90
25250;DHT22;13201;51.148;13.738;2022-07-15T09:38:45;19.00;99.90
25250;DHT22;13201;51.148;13.738;2022-07-15T09:43:49;19.40;99.90
25250;DHT22;13201;51.148;13.738;2022-07-15T09:46:15;19.80;99.90
25250;DHT22;13201;51.148;13.738;2022-07-15T09:48:43;19.70;99.90
25250;DHT22;13201;51.148;13.738;2022-07-15T09:51:10;19.60;99.90
25250;DHT22;13201;51.148;13.738;2022-07-15T09:53:37;19.60;99.90
25250;DHT22;13201;51.148;13.738;2022-07-15T09:56:07;19.30;99.90
25250;DHT22;13201;51.148;13.738;2022-07-15T09:58:37;19.70;99.90
25250;DHT22;13201;51.148;13.738;2022-07-15T10:01:03;20.10;99.90
25250;DHT22;13201;51.148;13.738;2022-07-15T10:03:31;19.80;99.90
25250;DHT22;13201;51.148;13.738;2022-07-15T10:05:57;19.50;99.20
25250;DHT22;13201;51.148;13.738;2022-07-15T10:08:24;19.50;99.50
25250;DHT22;13201;51.148;13.738;2022-07-15T10:10:52;19.50;99.60
25250;DHT22;13201;51.148;13.738;2022-07-15T10:29:44;20.40;97.80
25250;DHT22;13201;51.148;13.738;2022-07-15T10:32:10;21.10;96.90
25250;DHT22;13201;51.148;13.738;2022-07-15T10:34:38;21.10;96.60
25250;DHT22;13201;51.148;13.738;2022-07-15T10:37:07;20.80;96.40
25250;DHT22;13201;51.148;13.738;2022-07-15T10:39:55;20.50;96.20
25250;DHT22;13201;51.148;13.738;2022-07-15T10:42:23;20.30;95.80
25250;DHT22;13201;51.148;13.738;2022-07-15T10:45:03;20.40;96.30
25250;DHT22;13201;51.148;13.738;2022-07-15T10:47:29;20.80;95.30
25250;DHT22;13201;51.148;13.738;2022-07-15T10:49:55;21.50;96.60
25250;DHT22;13201;51.148;13.738;2022-07-15T10:52:26;21.00;95.10
25250;DHT22;13201;51.148;13.738;2022-07-15T11:00:31;20.90;95.40
25250;DHT22;13201;51.148;13.738;2022-07-15T11:05:30;20.50;95.10
25250;DHT22;13201;51.148;13.738;2022-07-15T11:07:57;21.10;95.50
25250;DHT22;13201;51.148;13.738;2022-07-15T11:10:22;21.20;94.80
25250;DHT22;13201;51.148;13.738;2022-07-15T11:15:18;20.60;94.80
25250;DHT22;13201;51.148;13.738;2022-07-15T11:17:46;20.50;94.80
25250;DHT22;13201;51.148;13.738;2022-07-15T11:20:20;20.50;94.80
25250;DHT22;13201;51.148;13.738;2022-07-15T11:22:48;21.10;95.40
25250;DHT22;13201;51.148;13.738;2022-07-15T11:30:42;20.90;94.70
25250;DHT22;13201;51.148;13.738;2022-07-15T11:33:11;20.30;94.40
25250;DHT22;13201;51.148;13.738;2022-07-15T11:35:49;20.40;95.40
25250;DHT22;13201;51.148;13.738;2022-07-15T11:38:17;20.40;95.70
25250;DHT22;13201;51.148;13.738;2022-07-15T11:40:52;20.70;95.20
25250;DHT22;13201;51.148;13.738;2022-07-15T11:43:37;21.10;94.80
25250;DHT22;13201;51.148;13.738;2022-07-15T11:46:21;21.40;94.00
25250;DHT22;13201;51.148;13.738;2022-07-15T11:48:50;21.30;94.60
25250;DHT22;13201;51.148;13.738;2022-07-15T11:51:22;21.40;94.40
25250;DHT22;13201;51.148;13.738;2022-07-15T11:53:49;22.20;94.80
25250;DHT22;13201;51.148;13.738;2022-07-15T11:56:15;22.50;93.50
25250;DHT22;13201;51.148;13.738;2022-07-15T11:58:49;22.10;93.60
25250;DHT22;13201;51.148;13.738;2022-07-15T12:01:17;22.40;92.90
25250;DHT22;13201;51.148;13.738;2022-07-15T12:03:45;22.10;92.90
25250;DHT22;13201;51.148;13.738;2022-07-15T12:06:20;21.90;93.20
25250;DHT22;13201;51.148;13.738;2022-07-15T12:08:54;21.80;92.90
25250;DHT22;13201;51.148;13.738;2022-07-15T12:13:51;21.70;93.70
25250;DHT22;13201;51.148;13.738;2022-07-15T12:16:23;21.80;92.60
25250;DHT22;13201;51.148;13.738;2022-07-15T12:18:52;21.60;93.00
25250;DHT22;13201;51.148;13.738;2022-07-15T12:21:19;20.80;93.50
25250;DHT22;13201;51.148;13.738;2022-07-15T12:26:30;20.90;93.70
25250;DHT22;13201;51.148;13.738;2022-07-15T12:28:57;21.20;93.80
25250;DHT22;13201;51.148;13.738;2022-07-15T12:31:28;22.10;93.40
25250;DHT22;13201;51.148;13.738;2022-07-15T12:33:54;22.60;92.60
25250;DHT22;13201;51.148;13.738;2022-07-15T12:36:24;22.20;91.50
25250;DHT22;13201;51.148;13.738;2022-07-15T12:41:35;21.80;93.00
25250;DHT22;13201;51.148;13.738;2022-07-15T12:44:02;21.40;92.60
25250;DHT22;13201;51.148;13.738;2022-07-15T12:47:00;21.50;92.70
25250;DHT22;13201;51.148;13.738;2022-07-15T12:52:18;22.00;91.60
25250;DHT22;13201;51.148;13.738;2022-07-15T12:54:44;21.90;92.20
25250;DHT22;13201;51.148;13.738;2022-07-15T12:57:20;21.30;91.90
25250;DHT22;13201;51.148;13.738;2022-07-15T13:00:09;21.30;92.50
25250;DHT22;13201;51.148;13.738;2022-07-15T13:07:59;21.40;92.60
25250;DHT22;13201;51.148;13.738;2022-07-15T13:10:28;22.00;93.00
25250;DHT22;13201;51.148;13.738;2022-07-15T13:12:54;22.40;92.40
25250;DHT22;13201;51.148;13.738;2022-07-15T13:15:20;21.80;91.80
25250;DHT22;13201;51.148;13.738;2022-07-15T13:17:46;21.60;92.10
25250;DHT22;13201;51.148;13.738;2022-07-15T13:20:11;21.10;92.30
25250;DHT22;13201;51.148;13.738;2022-07-15T13:22:38;21.50;92.50
25250;DHT22;13201;51.148;13.738;2022-07-15T13:25:04;22.10;91.60
25250;DHT22;13201;51.148;13.738;2022-07-15T13:27:30;22.60;91.30
25250;DHT22;13201;51.148;13.738;2022-07-15T13:29:56;23.10;91.10
25250;DHT22;13201;51.148;13.738;2022-07-15T13:32:21;23.80;90.90
25250;DHT22;13201;51.148;13.738;2022-07-15T13:34:47;23.10;90.40
25250;DHT22;13201;51.148;13.738;2022-07-15T13:37:13;23.80;89.70
25250;DHT22;13201;51.148;13.738;2022-07-15T13:39:38;23.70;90.10
25250;DHT22;13201;51.148;13.738;2022-07-15T13:42:04;22.70;89.80
25250;DHT22;13201;51.148;13.738;2022-07-15T13:44:30;22.50;89.90
25250;DHT22;13201;51.148;13.738;2022-07-15T13:46:55;22.20;90.10
25250;DHT22;13201;51.148;13.738;2022-07-15T13:49:22;22.30;90.70
25250;DHT22;13201;51.148;13.738;2022-07-15T13:52:07;22.50;90.40
25250;DHT22;13201;51.148;13.738;2022-07-15T13:54:33;22.70;90.50
25250;DHT22;13201;51.148;13.738;2022-07-15T13:56:58;23.10;90.50
25250;DHT22;13201;51.148;13.738;2022-07-15T13:59:24;23.50;89.60
25250;DHT22;13201;51.148;13.738;2022-07-15T14:01:50;23.30;88.70
25250;DHT22;13201;51.148;13.738;2022-07-15T14:04:17;23.80;89.60
25250;DHT22;13201;51.148;13.738;2022-07-15T14:06:42;24.00;88.00
25250;DHT22;13201;51.148;13.738;2022-07-15T14:09:08;24.50;88.30
25250;DHT22;13201;51.148;13.738;2022-07-15T14:11:34;24.90;87.20
25250;DHT22;13201;51.148;13.738;2022-07-15T14:14:00;25.10;84.90
25250;DHT22;13201;51.148;13.738;2022-07-15T14:16:27;24.90;85.00
25250;DHT22;13201;51.148;13.738;2022-07-15T14:18:52;23.30;86.20
25250;DHT22;13201;51.148;13.738;2022-07-15T14:21:18;23.20;86.50
25250;DHT22;13201;51.148;13.738;2022-07-15T14:23:45;22.90;86.80
25250;DHT22;13201;51.148;13.738;2022-07-15T14:26:11;23.00;86.60
25250;DHT22;13201;51.148;13.738;2022-07-15T14:28:38;22.80;86.90
25250;DHT22;13201;51.148;13.738;2022-07-15T14:31:05;23.00;87.20
25250;DHT22;13201;51.148;13.738;2022-07-15T14:33:32;23.60;87.40
25250;DHT22;13201;51.148;13.738;2022-07-15T14:35:58;23.60;87.60
25250;DHT22;13201;51.148;13.738;2022-07-15T14:38:23;23.60;86.80
25250;DHT22;13201;51.148;13.738;2022-07-15T14:40:49;24.10;85.70
25250;DHT22;13201;51.148;13.738;2022-07-15T14:43:15;24.70;85.40
25250;DHT22;13201;51.148;13.738;2022-07-15T14:45:41;24.60;84.70
25250;DHT22;13201;51.148;13.738;2022-07-15T14:48:06;24.10;85.00
25250;DHT22;13201;51.148;13.738;2022-07-15T14:50:32;24.30;85.10
25250;DHT22;13201;51.148;13.738;2022-07-15T14:53:01;23.90;84.00
25250;DHT22;13201;51.148;13.738;2022-07-15T14:55:27;23.90;83.90
25250;DHT22;13201;51.148;13.738;2022-07-15T14:57:52;23.50;84.80
25250;DHT22;13201;51.148;13.738;2022-07-15T15:00:18;23.40;86.00
25250;DHT22;13201;51.148;13.738;2022-07-15T15:02:44;23.40;85.00
25250;DHT22;13201;51.148;13.738;2022-07-15T15:05:10;23.40;85.50
25250;DHT22;13201;51.148;13.738;2022-07-15T15:07:35;23.30;85.60
25250;DHT22;13201;51.148;13.738;2022-07-15T15:10:02;23.00;86.40
25250;DHT22;13201;51.148;13.738;2022-07-15T15:12:28;22.70;87.20
25250;DHT22;13201;51.148;13.738;2022-07-15T15:14:54;22.90;86.50
25250;DHT22;13201;51.148;13.738;2022-07-15T15:17:19;22.90;86.10
25250;DHT22;13201;51.148;13.738;2022-07-15T15:19:45;22.90;85.70
25250;DHT22;13201;51.148;13.738;2022-07-15T15:22:11;23.80;87.80
25250;DHT22;13201;51.148;13.738;2022-07-15T15:24:36;25.20;85.20
25250;DHT22;13201;51.148;13.738;2022-07-15T15:27:03;25.10;83.80
25250;DHT22;13201;51.148;13.738;2022-07-15T15:29:30;24.80;83.00
25250;DHT22;13201;51.148;13.738;2022-07-15T15:31:56;24.90;82.20
25250;DHT22;13201;51.148;13.738;2022-07-15T15:34:22;25.10;82.30
25250;DHT22;13201;51.148;13.738;2022-07-15T15:36:48;24.60;83.50
25250;DHT22;13201;51.148;13.738;2022-07-15T15:39:13;24.60;82.90
25250;DHT22;13201;51.148;13.738;2022-07-15T15:41:39;24.70;83.90
25250;DHT22;13201;51.148;13.738;2022-07-15T15:44:05;24.90;82.40
25250;DHT22;13201;51.148;13.738;2022-07-15T15:46:31;24.40;83.00
25250;DHT22;13201;51.148;13.738;2022-07-15T15:48:57;25.10;82.00
25250;DHT22;13201;51.148;13.738;2022-07-15T15:51:22;25.60;82.70
25250;DHT22;13201;51.148;13.738;2022-07-15T15:53:48;26.30;81.40
25250;DHT22;13201;51.148;13.738;2022-07-15T15:56:14;25.20;79.60
25250;DHT22;13201;51.148;13.738;2022-07-15T15:58:39;24.20;81.60
25250;DHT22;13201;51.148;13.738;2022-07-15T16:01:05;24.60;82.00
25250;DHT22;13201;51.148;13.738;2022-07-15T16:03:31;24.50;81.70
25250;DHT22;13201;51.148;13.738;2022-07-15T16:05:56;24.30;81.70
25250;DHT22;13201;51.148;13.738;2022-07-15T16:08:22;24.30;82.80
25250;DHT22;13201;51.148;13.738;2022-07-15T16:10:48;24.60;81.40
25250;DHT22;13201;51.148;13.738;2022-07-15T16:13:14;24.70;80.90
25250;DHT22;13201;51.148;13.738;2022-07-15T16:15:39;24.30;81.20
25250;DHT22;13201;51.148;13.738;2022-07-15T16:18:05;23.70;82.30
25250;DHT22;13201;51.148;13.738;2022-07-15T16:20:31;23.80;82.50
25250;DHT22;13201;51.148;13.738;2022-07-15T16:22:57;24.00;81.30
25250;DHT22;13201;51.148;13.738;2022-07-15T16:25:30;23.80;82.00
25250;DHT22;13201;51.148;13.738;2022-07-15T16:27:58;23.50;81.90
25250;DHT22;13201;51.148;13.738;2022-07-15T16:30:24;23.40;82.40